KIND Airport Diagram

We have created a template for each of the higher traffic airports in the vZID airspace. They include KCMH, KCRW, KCVG, KDAY, KIND, KLEX and KSDF. You wil find usefull information including the airport diagram, weather, and specific airport procedures.

KIND Weather

[Source: ADDS]
METAR
KIND 191354Z 28004KT 5SM BR OVC008 09/07 A3006 RMK AO2 SLP180 T00940072 =
TAF
KIND 191424Z 1914/2018 25005KT 5SM BR OVC007 FM191700 25006KT P6SM BKN012 FM191900 23006KT P6SM SCT035 FM200600 VRB03KT 4SM BR SCT035 FM201100 VRB03KT 4SM BR BKN010 FM201300 13004KT P6SM SCT010 =

KIND Operations

Calm Wind Configuration is runways 23L and 23R

Runway 23L typically departs south and east

Runway 23R typicall departs north and west

New Scenery is available at FlightSim.com and Blueprint Simulations. On initial contact, arriving aircraft should notify the the controller which scenery they have.

FedEx pilots should expect runway 23L or 5R.

 

JSN Epic template designed by JoomlaShine.com